createdAt,value
2017-07-02T00:02:16.750Z,88.92
2017-07-02T00:04:44.340Z,88.88
2017-07-02T00:07:11.874Z,88.62
2017-07-02T00:09:39.682Z,88.61
2017-07-02T00:12:07.215Z,88.74
2017-07-02T00:14:34.731Z,88.92
2017-07-02T00:17:02.326Z,88.98
2017-07-02T00:19:29.871Z,88.74
2017-07-02T00:21:57.439Z,88.63
2017-07-02T00:24:25.004Z,89.07
2017-07-02T00:26:52.789Z,88.73
2017-07-02T00:29:20.312Z,88.79
2017-07-02T00:31:47.824Z,88.43
2017-07-02T00:34:15.400Z,88.79
2017-07-02T00:36:42.936Z,88.62
2017-07-02T00:39:10.564Z,88.40
2017-07-02T00:41:38.099Z,88.04
2017-07-02T00:44:05.751Z,88.48
2017-07-02T00:46:33.267Z,89.23
2017-07-02T00:49:01.017Z,89.07
2017-07-02T00:51:28.569Z,88.80
2017-07-02T00:53:56.099Z,88.80
2017-07-02T00:56:23.670Z,89.31
2017-07-02T00:58:51.288Z,89.15
2017-07-02T01:01:18.870Z,88.94
2017-07-02T01:03:46.463Z,88.92
2017-07-02T01:06:14.062Z,88.61
2017-07-02T01:08:41.698Z,87.94
2017-07-02T01:11:09.283Z,88.14
2017-07-02T01:13:36.844Z,87.40
2017-07-02T01:16:04.380Z,86.85
2017-07-02T01:18:32.083Z,88.01
2017-07-02T01:20:59.610Z,87.87
2017-07-02T01:23:27.192Z,88.31
2017-07-02T01:25:54.748Z,88.69
2017-07-02T01:28:22.260Z,88.26
2017-07-02T01:30:49.820Z,88.93
2017-07-02T01:33:17.354Z,89.08
2017-07-02T01:35:44.902Z,88.74
2017-07-02T01:38:12.430Z,88.29
2017-07-02T01:40:40.339Z,88.93
2017-07-02T01:43:07.872Z,89.67
2017-07-02T01:45:35.398Z,89.04
2017-07-02T01:48:03.062Z,88.89
2017-07-02T01:50:30.650Z,89.37
2017-07-02T01:52:58.185Z,89.42
2017-07-02T01:55:25.683Z,89.24
2017-07-02T01:57:53.339Z,89.12
2017-07-02T02:00:20.858Z,88.79
2017-07-02T02:03:00.393Z,89.28
2017-07-02T02:05:27.922Z,88.92
2017-07-02T02:07:55.494Z,89.12
2017-07-02T02:10:23.047Z,90.02
2017-07-02T02:12:50.578Z,90.11
2017-07-02T02:15:18.135Z,89.42
2017-07-02T02:17:45.668Z,90.70
2017-07-02T02:20:13.589Z,90.60
2017-07-02T02:22:41.128Z,90.69
2017-07-02T02:25:08.666Z,91.20
2017-07-02T02:27:36.220Z,91.63
2017-07-02T02:30:03.736Z,91.22
2017-07-02T02:32:31.329Z,91.19
2017-07-02T02:34:58.911Z,91.40
2017-07-02T02:37:26.657Z,91.52
2017-07-02T02:39:54.188Z,91.72
2017-07-02T02:42:21.743Z,91.45
2017-07-02T02:44:49.371Z,90.49
2017-07-02T02:47:16.996Z,90.76
2017-07-02T02:49:44.616Z,91.36
2017-07-02T02:52:12.164Z,91.60
2017-07-02T02:54:39.733Z,91.61
2017-07-02T02:57:07.292Z,91.25
2017-07-02T02:59:34.866Z,90.93
2017-07-02T03:02:02.407Z,90.81
2017-07-02T03:04:30.303Z,90.47
2017-07-02T03:06:57.837Z,90.61
2017-07-02T03:09:25.351Z,90.16
2017-07-02T03:11:52.898Z,90.36
2017-07-02T03:14:20.428Z,90.68
2017-07-02T03:16:47.982Z,90.74
2017-07-02T03:19:15.535Z,90.46
2017-07-02T03:21:43.115Z,90.64
2017-07-02T03:24:10.665Z,90.04
2017-07-02T03:26:38.232Z,90.02
2017-07-02T03:29:05.751Z,90.07
2017-07-02T03:31:33.319Z,90.13
2017-07-02T03:34:00.874Z,90.39
2017-07-02T03:36:28.607Z,90.94
2017-07-02T03:38:56.439Z,90.70
2017-07-02T03:41:24.018Z,89.81
2017-07-02T03:43:51.575Z,89.16
2017-07-02T03:46:19.104Z,90.35
2017-07-02T03:48:46.702Z,89.81
2017-07-02T03:51:14.237Z,89.86
2017-07-02T03:53:41.846Z,89.54
2017-07-02T03:56:09.367Z,88.93
2017-07-02T03:58:37.065Z,89.65
2017-07-02T04:01:04.583Z,89.19
2017-07-02T04:03:32.109Z,89.47
2017-07-02T04:05:59.699Z,88.94
2017-07-02T04:08:27.213Z,88.92
2017-07-02T04:10:55.083Z,89.45
2017-07-02T04:13:22.587Z,89.49
2017-07-02T04:15:50.128Z,88.87
2017-07-02T04:18:17.689Z,88.71
2017-07-02T04:20:45.219Z,88.12
2017-07-02T04:23:12.957Z,87.86
2017-07-02T04:25:40.458Z,89.18
2017-07-02T04:28:08.031Z,88.16
2017-07-02T04:30:35.591Z,88.17
2017-07-02T04:33:03.169Z,88.11
2017-07-02T04:35:30.723Z,89.02
2017-07-02T04:37:58.336Z,88.41
2017-07-02T04:40:25.985Z,88.25
2017-07-02T04:42:53.593Z,87.93
2017-07-02T04:45:21.306Z,87.53
2017-07-02T04:47:48.812Z,86.89
2017-07-02T04:50:16.324Z,87.62
2017-07-02T04:52:43.894Z,87.12
2017-07-02T04:55:11.510Z,87.08
2017-07-02T04:57:39.063Z,87.53
2017-07-02T05:00:06.681Z,87.49
2017-07-02T05:02:34.579Z,86.41
2017-07-02T05:05:02.117Z,86.97
2017-07-02T05:07:29.651Z,86.92
2017-07-02T05:09:57.204Z,86.81
2017-07-02T05:12:24.731Z,86.75
2017-07-02T05:14:52.307Z,86.25
2017-07-02T05:17:19.835Z,86.83
2017-07-02T05:19:47.395Z,86.43
2017-07-02T05:22:14.915Z,86.30
2017-07-02T05:24:42.574Z,85.86
2017-07-02T05:27:10.097Z,85.25
2017-07-02T05:29:37.607Z,85.33
2017-07-02T05:32:05.156Z,85.55
2017-07-02T05:34:32.730Z,85.34
2017-07-02T05:37:00.388Z,85.53
2017-07-02T05:39:27.902Z,85.82
2017-07-02T05:41:55.630Z,84.51
2017-07-02T05:44:23.220Z,84.45
2017-07-02T05:46:50.740Z,84.33
2017-07-02T05:49:18.316Z,84.31
2017-07-02T05:51:45.827Z,84.57
2017-07-02T05:54:13.379Z,84.69
2017-07-02T05:56:40.898Z,84.35
2017-07-02T05:59:08.471Z,84.03
2017-07-02T06:01:36.057Z,84.73
2017-07-02T06:04:03.604Z,84.10
2017-07-02T06:06:31.103Z,84.13
2017-07-02T06:08:58.815Z,83.45
2017-07-02T06:11:26.337Z,83.50
2017-07-02T06:13:53.853Z,83.65
2017-07-02T06:16:21.406Z,83.79
2017-07-02T06:18:48.919Z,83.72
2017-07-02T06:21:16.471Z,84.54
2017-07-02T06:23:43.975Z,84.13
2017-07-02T06:26:11.528Z,83.09
2017-07-02T06:28:39.047Z,82.74
2017-07-02T06:31:06.722Z,82.96
2017-07-02T06:33:34.243Z,82.96
2017-07-02T06:36:01.755Z,83.13
2017-07-02T06:38:29.331Z,81.42
2017-07-02T06:40:56.855Z,82.27
2017-07-02T06:43:24.419Z,81.23
2017-07-02T06:45:51.917Z,80.37
2017-07-02T06:48:19.470Z,79.35
2017-07-02T06:50:47.017Z,80.96
2017-07-02T06:53:14.563Z,80.50
2017-07-02T06:55:42.092Z,79.08
2017-07-02T06:58:09.732Z,80.83
2017-07-02T07:00:37.248Z,82.46
2017-07-02T07:03:04.898Z,81.74
2017-07-02T07:05:32.487Z,82.67
2017-07-02T07:08:00.018Z,82.09
2017-07-02T07:10:27.591Z,83.01
2017-07-02T07:12:55.106Z,82.29
2017-07-02T07:15:22.679Z,82.15
2017-07-02T07:17:50.194Z,82.71
2017-07-02T07:20:17.760Z,81.51
2017-07-02T07:22:45.266Z,81.79
2017-07-02T07:25:12.827Z,81.15
2017-07-02T07:27:40.327Z,80.55
2017-07-02T07:30:08.272Z,79.76
2017-07-02T07:32:35.803Z,81.17
2017-07-02T07:35:03.336Z,80.52
2017-07-02T07:37:30.898Z,81.13
2017-07-02T07:39:58.407Z,80.51
2017-07-02T07:42:25.979Z,79.61
2017-07-02T07:44:53.492Z,79.98
2017-07-02T07:47:21.168Z,79.99
2017-07-02T07:49:48.676Z,80.87
2017-07-02T07:52:16.207Z,80.41
2017-07-02T07:54:43.778Z,80.09
2017-07-02T07:57:11.287Z,80.15
2017-07-02T07:59:38.840Z,79.94
2017-07-02T08:02:06.367Z,79.54
2017-07-02T08:04:33.952Z,79.55
2017-07-02T08:07:01.480Z,79.80
2017-07-02T08:09:29.188Z,80.37
2017-07-02T08:11:56.704Z,80.24
2017-07-02T08:14:24.240Z,80.98
2017-07-02T08:16:51.815Z,80.88
2017-07-02T08:19:19.315Z,81.00
2017-07-02T08:21:46.879Z,81.91
2017-07-02T08:24:14.383Z,82.58
2017-07-02T08:26:41.979Z,83.17
2017-07-02T08:29:09.504Z,82.97
2017-07-02T08:31:37.107Z,83.12
2017-07-02T08:34:04.664Z,82.95
2017-07-02T08:36:32.347Z,83.01
2017-07-02T08:38:59.847Z,82.39
2017-07-02T08:41:27.384Z,82.64
2017-07-02T08:43:54.999Z,81.96
2017-07-02T08:46:22.519Z,81.91
2017-07-02T08:48:50.116Z,81.08
2017-07-02T08:51:17.641Z,80.02
2017-07-02T08:53:45.457Z,80.49
2017-07-02T08:56:12.974Z,80.44
2017-07-02T08:58:40.505Z,80.33
2017-07-02T09:01:08.107Z,79.75
2017-07-02T09:03:35.627Z,80.78
2017-07-02T09:06:03.187Z,80.70
2017-07-02T09:08:30.677Z,80.91
2017-07-02T09:10:58.360Z,80.70
2017-07-02T09:13:25.892Z,81.84
2017-07-02T09:15:53.371Z,81.69
2017-07-02T09:18:20.938Z,81.71
2017-07-02T09:20:48.456Z,81.80
2017-07-02T09:23:16.031Z,80.07
2017-07-02T09:25:43.555Z,78.29
2017-07-02T09:28:11.113Z,78.00
2017-07-02T09:30:38.661Z,78.66
2017-07-02T09:33:06.218Z,78.07
2017-07-02T09:35:33.778Z,76.84
2017-07-02T09:38:01.403Z,76.09
2017-07-02T09:40:28.948Z,76.44
2017-07-02T09:42:56.468Z,76.66
2017-07-02T09:45:24.010Z,76.92
2017-07-02T09:47:51.562Z,77.05
2017-07-02T09:50:19.071Z,76.90
2017-07-02T09:52:46.631Z,77.47
2017-07-02T09:55:14.162Z,78.13
2017-07-02T09:57:41.896Z,77.76
2017-07-02T10:00:09.422Z,77.25
2017-07-02T10:02:36.964Z,77.94
2017-07-02T10:05:04.532Z,78.08
2017-07-02T10:07:32.046Z,77.49
2017-07-02T10:09:59.651Z,77.42
2017-07-02T10:12:27.167Z,77.56
2017-07-02T10:14:54.718Z,78.02
2017-07-02T10:17:22.239Z,77.89
2017-07-02T10:19:49.931Z,78.02
2017-07-02T10:22:17.472Z,77.46
2017-07-02T10:24:44.976Z,77.74
2017-07-02T10:27:12.613Z,77.83
2017-07-02T10:29:40.143Z,77.56
2017-07-02T10:32:07.784Z,77.69
2017-07-02T10:34:35.371Z,77.56
2017-07-02T10:37:03.034Z,77.48
2017-07-02T10:39:30.571Z,76.78
2017-07-02T10:41:58.481Z,76.18
2017-07-02T10:44:26.004Z,75.50
2017-07-02T10:46:53.532Z,75.21
2017-07-02T10:49:21.125Z,75.60
2017-07-02T10:51:48.689Z,75.72
2017-07-02T10:54:16.395Z,76.13
2017-07-02T10:56:44.002Z,75.67
2017-07-02T10:59:11.583Z,75.98
2017-07-02T11:01:39.426Z,75.43
2017-07-02T11:04:07.327Z,74.41
2017-07-02T11:06:34.906Z,73.96
2017-07-02T11:09:02.480Z,73.83
2017-07-02T11:11:30.039Z,73.90
2017-07-02T11:13:57.710Z,74.56
2017-07-02T11:16:25.283Z,74.57
2017-07-02T11:18:52.799Z,75.06
2017-07-02T11:21:20.371Z,75.07
2017-07-02T11:23:47.888Z,75.52
2017-07-02T11:26:15.460Z,74.69
2017-07-02T11:28:43.001Z,74.50
2017-07-02T11:31:10.567Z,74.47
2017-07-02T11:33:38.138Z,74.82
2017-07-02T11:36:06.023Z,74.45
2017-07-02T11:38:33.566Z,73.84
2017-07-02T11:41:01.109Z,73.97
2017-07-02T11:43:28.910Z,74.75
2017-07-02T11:45:56.428Z,74.24
2017-07-02T11:48:24.038Z,74.55
2017-07-02T11:50:51.598Z,75.00
2017-07-02T11:53:19.155Z,74.95
2017-07-02T11:55:46.719Z,74.71
2017-07-02T11:58:14.395Z,74.76
2017-07-02T12:00:42.027Z,74.98
2017-07-02T12:03:09.562Z,75.09
2017-07-02T12:05:37.142Z,74.32
2017-07-02T12:08:04.694Z,74.41
2017-07-02T12:10:32.268Z,74.43
2017-07-02T12:12:59.784Z,73.81
2017-07-02T12:15:27.607Z,74.10
2017-07-02T12:17:55.122Z,74.74
2017-07-02T12:20:23.496Z,74.57
2017-07-02T12:22:51.044Z,74.67
2017-07-02T12:25:18.566Z,74.51
2017-07-02T12:27:46.127Z,74.48
2017-07-02T12:30:13.739Z,74.48
2017-07-02T12:32:41.309Z,73.84
2017-07-02T12:35:08.859Z,73.73
2017-07-02T12:37:36.689Z,74.54
2017-07-02T12:40:04.208Z,74.28
2017-07-02T12:42:31.709Z,73.86
2017-07-02T12:44:59.347Z,73.48
2017-07-02T12:47:26.895Z,74.02
2017-07-02T12:49:54.459Z,73.42
2017-07-02T12:52:21.973Z,73.35
2017-07-02T12:54:49.693Z,74.04
2017-07-02T12:57:17.204Z,73.80
2017-07-02T12:59:44.791Z,74.40
2017-07-02T13:02:12.351Z,74.23
2017-07-02T13:04:39.884Z,74.11
2017-07-02T13:07:07.689Z,74.34
2017-07-02T13:09:35.313Z,75.21
2017-07-02T13:12:03.089Z,76.14
2017-07-02T13:14:30.593Z,77.72
2017-07-02T13:16:58.125Z,77.73
2017-07-02T13:19:25.734Z,79.59
2017-07-02T13:21:53.261Z,80.65
2017-07-02T13:24:20.855Z,83.12
2017-07-02T13:26:48.381Z,87.27
2017-07-02T13:29:16.064Z,89.16
2017-07-02T13:31:43.616Z,88.73
2017-07-02T13:34:11.143Z,89.59
2017-07-02T13:36:38.712Z,88.95
2017-07-02T13:39:06.231Z,88.87
2017-07-02T13:41:33.795Z,89.94
2017-07-02T13:44:01.327Z,89.62
2017-07-02T13:46:29.004Z,89.15
2017-07-02T13:48:56.586Z,89.66
2017-07-02T13:51:24.350Z,88.59
2017-07-02T13:53:52.002Z,89.22
2017-07-02T13:56:19.539Z,89.76
2017-07-02T13:58:47.164Z,89.64
2017-07-02T14:01:14.679Z,89.79
2017-07-02T14:03:42.259Z,90.41
2017-07-02T14:06:09.795Z,90.66
2017-07-02T14:08:37.724Z,89.42
2017-07-02T14:11:05.247Z,89.53
2017-07-02T14:13:32.808Z,89.08
2017-07-02T14:16:00.352Z,88.20
2017-07-02T14:18:27.971Z,87.93
2017-07-02T14:20:55.551Z,88.24
2017-07-02T14:23:23.072Z,87.13
2017-07-02T14:25:50.738Z,85.71
2017-07-02T14:28:18.289Z,84.91
2017-07-02T14:30:45.820Z,84.00
2017-07-02T14:33:13.386Z,82.42
2017-07-02T14:35:41.014Z,81.70
2017-07-02T14:38:08.591Z,79.64
2017-07-02T14:40:36.147Z,79.38
2017-07-02T14:43:03.702Z,78.41
2017-07-02T14:45:31.232Z,78.17
2017-07-02T14:47:58.946Z,79.56
2017-07-02T14:50:26.493Z,80.09
2017-07-02T14:52:54.032Z,78.86
2017-07-02T14:55:21.655Z,79.54
2017-07-02T14:57:49.166Z,77.12
2017-07-02T15:00:16.742Z,76.10
2017-07-02T15:02:44.252Z,76.04
2017-07-02T15:05:11.807Z,74.55
2017-07-02T15:07:39.332Z,75.80
2017-07-02T15:10:06.921Z,75.17
2017-07-02T15:12:34.466Z,75.91
2017-07-02T15:15:02.019Z,76.31
2017-07-02T15:17:29.546Z,76.07
2017-07-02T15:19:57.076Z,75.36
2017-07-02T15:22:24.721Z,75.76
2017-07-02T15:24:52.319Z,75.53
2017-07-02T15:27:19.872Z,75.60
2017-07-02T15:29:47.459Z,72.92
2017-07-02T15:32:15.024Z,73.30
2017-07-02T15:34:42.553Z,71.88
2017-07-02T15:37:10.146Z,71.87
2017-07-02T15:39:37.666Z,71.98
2017-07-02T15:42:05.233Z,74.52
2017-07-02T15:44:32.768Z,73.55
2017-07-02T15:47:00.337Z,72.25
2017-07-02T15:49:27.896Z,71.43
2017-07-02T15:51:55.516Z,71.36
2017-07-02T15:54:23.104Z,72.35
2017-07-02T15:56:50.674Z,73.38
2017-07-02T15:59:18.383Z,74.63
2017-07-02T16:01:45.931Z,74.35
2017-07-02T16:04:13.488Z,74.54
2017-07-02T16:06:41.075Z,75.37
2017-07-02T16:09:08.639Z,75.36
2017-07-02T16:11:36.205Z,72.87
2017-07-02T16:14:03.744Z,71.65
2017-07-02T16:16:31.701Z,71.80
2017-07-02T16:18:59.293Z,71.52
2017-07-02T16:21:26.918Z,69.13
2017-07-02T16:23:54.476Z,71.36
2017-07-02T16:26:22.040Z,73.58
2017-07-02T16:28:49.633Z,72.90
2017-07-02T16:31:17.189Z,73.13
2017-07-02T16:33:44.753Z,71.51
2017-07-02T16:36:12.275Z,69.77
2017-07-02T16:38:39.857Z,70.44
2017-07-02T16:41:07.368Z,70.77
2017-07-02T16:43:35.067Z,69.73
2017-07-02T16:46:02.593Z,72.22
2017-07-02T16:48:30.135Z,71.13
2017-07-02T16:50:57.667Z,70.82
2017-07-02T16:53:25.217Z,68.10
2017-07-02T16:55:52.766Z,67.08
2017-07-02T16:58:20.280Z,66.77
2017-07-02T17:00:47.839Z,65.97
2017-07-02T17:03:15.358Z,66.70
2017-07-02T17:05:43.035Z,66.33
2017-07-02T17:08:10.561Z,66.35
2017-07-02T17:10:38.161Z,64.90
2017-07-02T17:13:05.760Z,61.43
2017-07-02T17:15:33.351Z,61.70
2017-07-02T17:18:00.924Z,60.80
2017-07-02T17:20:28.468Z,59.40
2017-07-02T17:22:56.032Z,57.16
2017-07-02T17:25:23.606Z,56.67
2017-07-02T17:27:51.421Z,56.45
2017-07-02T17:30:18.967Z,55.72
2017-07-02T17:32:46.473Z,56.29
2017-07-02T17:35:14.031Z,56.18
2017-07-02T17:37:41.590Z,56.87
2017-07-02T17:40:09.179Z,57.27
2017-07-02T17:42:36.764Z,55.86
2017-07-02T17:45:04.334Z,55.06
2017-07-02T17:47:31.847Z,54.70
2017-07-02T17:49:59.412Z,54.00
2017-07-02T17:52:27.098Z,53.35
2017-07-02T17:54:54.659Z,53.40
2017-07-02T17:57:22.348Z,53.06
2017-07-02T17:59:49.910Z,53.90
2017-07-02T18:02:17.601Z,52.27
2017-07-02T18:04:45.366Z,52.84
2017-07-02T18:07:12.876Z,53.12
2017-07-02T18:09:40.433Z,53.76
2017-07-02T18:12:07.965Z,52.83
2017-07-02T18:14:35.527Z,52.63
2017-07-02T18:17:03.127Z,52.82
2017-07-02T18:19:30.795Z,52.95
2017-07-02T18:21:58.303Z,52.25
2017-07-02T18:24:25.827Z,53.06
2017-07-02T18:26:53.399Z,52.87
2017-07-02T18:29:20.951Z,53.33
2017-07-02T18:31:48.559Z,52.77
2017-07-02T18:34:16.154Z,54.02
2017-07-02T18:36:43.755Z,53.84
2017-07-02T18:39:11.313Z,53.90
2017-07-02T18:41:38.880Z,53.99
2017-07-02T18:44:06.479Z,54.27
2017-07-02T18:46:34.150Z,55.23
2017-07-02T18:49:01.719Z,56.01
2017-07-02T18:51:29.278Z,56.39
2017-07-02T18:53:56.884Z,57.17
2017-07-02T18:56:24.412Z,57.36
2017-07-02T18:58:51.975Z,57.37
2017-07-02T19:01:19.506Z,58.17
2017-07-02T19:03:47.456Z,58.77
2017-07-02T19:06:14.979Z,58.64
2017-07-02T19:08:42.528Z,58.72
2017-07-02T19:11:10.139Z,58.39
2017-07-02T19:13:37.707Z,59.20
2017-07-02T19:16:05.259Z,59.27
2017-07-02T19:18:32.793Z,58.66
2017-07-02T19:21:00.396Z,58.65
2017-07-02T19:23:28.019Z,57.88
2017-07-02T19:25:55.604Z,57.85
2017-07-02T19:28:23.178Z,58.57
2017-07-02T19:30:50.828Z,58.94
2017-07-02T19:33:18.361Z,59.71
2017-07-02T19:35:45.888Z,59.29
2017-07-02T19:38:13.467Z,59.40
2017-07-02T19:40:41.044Z,59.84
2017-07-02T19:43:08.660Z,60.12
2017-07-02T19:45:36.193Z,60.02
2017-07-02T19:48:03.774Z,60.79
2017-07-02T19:50:31.383Z,60.60
2017-07-02T19:52:59.064Z,60.48
2017-07-02T19:55:26.597Z,60.27
2017-07-02T19:57:54.146Z,60.29
2017-07-02T20:00:21.779Z,60.21
2017-07-02T20:02:49.295Z,60.24
2017-07-02T20:05:16.879Z,60.79
2017-07-02T20:07:44.473Z,60.82
2017-07-02T20:10:12.411Z,60.68
2017-07-02T20:12:40.037Z,61.13
2017-07-02T20:15:07.624Z,61.06
2017-07-02T20:17:35.171Z,61.54
2017-07-02T20:20:02.696Z,61.58
2017-07-02T20:22:30.268Z,61.31
2017-07-02T20:24:57.800Z,61.33
2017-07-02T20:27:25.499Z,61.35
2017-07-02T20:29:53.069Z,61.77
2017-07-02T20:32:20.751Z,61.82
2017-07-02T20:34:48.286Z,62.08
2017-07-02T20:37:15.832Z,62.80
2017-07-02T20:39:43.422Z,62.98
2017-07-02T20:42:10.955Z,62.67
2017-07-02T20:44:38.491Z,62.54
2017-07-02T20:47:05.995Z,62.68
2017-07-02T20:49:33.555Z,62.66
2017-07-02T20:52:01.085Z,62.87
2017-07-02T20:54:28.645Z,62.98
2017-07-02T20:56:56.166Z,63.40
2017-07-02T20:59:23.826Z,63.59
2017-07-02T21:01:51.356Z,64.40
2017-07-02T21:04:18.869Z,64.23
2017-07-02T21:06:46.549Z,64.58
2017-07-02T21:09:14.079Z,64.36
2017-07-02T21:11:41.708Z,64.53
2017-07-02T21:14:09.234Z,65.00
2017-07-02T21:16:36.836Z,65.04
2017-07-02T21:19:04.350Z,64.97
2017-07-02T21:21:31.920Z,65.05
2017-07-02T21:23:59.448Z,64.95
2017-07-02T21:26:27.257Z,65.17
2017-07-02T21:28:54.753Z,65.23
2017-07-02T21:31:22.272Z,64.45
2017-07-02T21:33:49.830Z,65.18
2017-07-02T21:36:17.339Z,65.81
2017-07-02T21:38:44.924Z,65.57
2017-07-02T21:41:12.487Z,65.59
2017-07-02T21:43:40.067Z,65.67
2017-07-02T21:46:07.632Z,66.00
2017-07-02T21:48:35.184Z,66.06
2017-07-02T21:51:02.691Z,66.66
2017-07-02T21:53:30.365Z,66.66
2017-07-02T21:55:57.871Z,66.00
2017-07-02T21:58:25.391Z,66.11
2017-07-02T22:00:52.945Z,65.76
2017-07-02T22:03:20.466Z,66.61
2017-07-02T22:05:48.019Z,66.21
2017-07-02T22:08:15.530Z,66.71
2017-07-02T22:10:43.180Z,67.03
2017-07-02T22:13:10.716Z,67.42
2017-07-02T22:15:38.249Z,67.23
2017-07-02T22:18:05.792Z,67.29
2017-07-02T22:20:33.320Z,67.35
2017-07-02T22:23:00.940Z,67.79
2017-07-02T22:25:28.522Z,68.04
2017-07-02T22:27:56.379Z,67.67
2017-07-02T22:30:23.904Z,67.64
2017-07-02T22:32:51.418Z,67.83
2017-07-02T22:35:18.977Z,68.52
2017-07-02T22:37:46.503Z,68.24
2017-07-02T22:40:14.071Z,68.57
2017-07-02T22:42:41.572Z,68.24
2017-07-02T22:45:09.114Z,68.52
2017-07-02T22:47:36.622Z,68.84
2017-07-02T22:50:04.196Z,68.32
2017-07-02T22:52:31.760Z,68.33
2017-07-02T22:54:59.502Z,68.05
2017-07-02T22:57:27.099Z,68.28
2017-07-02T22:59:54.620Z,68.99
2017-07-02T23:02:22.180Z,68.91
2017-07-02T23:04:49.695Z,68.64
2017-07-02T23:07:17.400Z,68.58
2017-07-02T23:09:44.911Z,68.88
2017-07-02T23:12:12.692Z,69.52
2017-07-02T23:14:40.204Z,69.58
2017-07-02T23:17:07.722Z,69.34
2017-07-02T23:19:35.408Z,69.39
2017-07-02T23:22:02.922Z,69.68
2017-07-02T23:24:30.512Z,70.11
2017-07-02T23:26:58.091Z,70.24
2017-07-02T23:29:25.683Z,70.58
2017-07-02T23:31:53.250Z,71.05
2017-07-02T23:34:20.840Z,70.81
2017-07-02T23:36:48.480Z,71.15
2017-07-02T23:39:15.994Z,70.96
2017-07-02T23:41:43.562Z,70.80
2017-07-02T23:44:11.084Z,70.89
2017-07-02T23:46:38.655Z,70.67
2017-07-02T23:49:06.219Z,71.29
2017-07-02T23:51:33.820Z,71.25
2017-07-02T23:54:01.395Z,71.05
2017-07-02T23:56:29.180Z,71.93
2017-07-02T23:58:56.707Z,71.61
